createdAt,value
2018-10-03T00:00:16.683Z,101142.39
2018-10-03T00:05:19.829Z,101139.27
2018-10-03T00:10:22.937Z,101139.88
2018-10-03T00:15:26.044Z,101139.11
2018-10-03T00:20:29.191Z,101136.55
2018-10-03T00:25:32.279Z,101139.13
2018-10-03T00:30:35.354Z,101147.77
2018-10-03T00:35:38.470Z,101136.46
2018-10-03T00:40:41.560Z,101156.33
2018-10-03T00:45:44.675Z,101145.63
2018-10-03T00:50:47.717Z,101157.92
2018-10-03T00:55:50.806Z,101158.50
2018-10-03T01:00:53.916Z,101155.72
2018-10-03T01:05:56.994Z,101158.84
2018-10-03T01:11:00.072Z,101167.75
2018-10-03T01:16:03.272Z,101165.19
2018-10-03T01:21:06.399Z,101168.91
2018-10-03T01:26:09.483Z,101165.41
2018-10-03T01:31:12.682Z,101162.62
2018-10-03T01:36:15.775Z,101153.80
2018-10-03T01:41:18.887Z,101159.76
2018-10-03T01:46:21.936Z,101157.29
2018-10-03T01:51:25.015Z,101165.34
2018-10-03T01:56:28.210Z,101171.17
2018-10-03T02:01:31.314Z,101172.13
2018-10-03T02:06:34.419Z,101179.95
2018-10-03T02:11:37.481Z,101194.14
2018-10-03T02:16:40.571Z,101194.20
2018-10-03T02:21:43.655Z,101172.34
2018-10-03T02:26:46.767Z,101181.41
2018-10-03T02:31:49.883Z,101180.75
2018-10-03T02:36:52.987Z,101175.41
2018-10-03T02:41:56.068Z,101187.22
2018-10-03T02:46:59.175Z,101180.98
2018-10-03T02:52:03.093Z,101199.67
2018-10-03T02:57:06.475Z,101212.95
2018-10-03T03:02:09.560Z,101211.06
2018-10-03T03:07:12.709Z,101198.55
2018-10-03T03:12:15.862Z,101208.76
2018-10-03T03:17:19.146Z,101195.36
2018-10-03T03:22:22.274Z,101211.06
2018-10-03T03:27:25.355Z,101207.88
2018-10-03T03:32:28.423Z,101229.91
2018-10-03T03:37:31.527Z,101221.43
2018-10-03T03:42:34.583Z,101230.92
2018-10-03T03:47:37.648Z,101233.00
2018-10-03T03:52:40.719Z,101226.20
2018-10-03T03:57:43.867Z,101241.55
2018-10-03T04:02:46.997Z,101235.06
2018-10-03T04:07:50.071Z,101235.91
2018-10-03T04:12:53.150Z,101246.80
2018-10-03T04:17:56.195Z,101255.91
2018-10-03T04:22:59.271Z,101268.53
2018-10-03T04:28:02.350Z,101277.82
2018-10-03T04:33:05.423Z,101287.77
2018-10-03T04:38:08.475Z,101292.86
2018-10-03T04:43:11.558Z,101298.28
2018-10-03T04:48:14.639Z,101307.06
2018-10-03T04:53:17.732Z,101310.69
2018-10-03T04:58:20.789Z,101315.45
2018-10-03T05:03:23.863Z,101323.77
2018-10-03T05:08:27.040Z,101337.27
2018-10-03T05:13:30.157Z,101346.41
2018-10-03T05:18:33.256Z,101355.65
2018-10-03T05:23:36.403Z,101360.52
2018-10-03T05:28:39.498Z,101365.11
2018-10-03T05:33:42.675Z,101367.20
2018-10-03T05:38:45.819Z,101371.12
2018-10-03T05:43:49.139Z,101382.87
2018-10-03T05:48:52.332Z,101379.77
2018-10-03T05:53:55.491Z,101387.36
2018-10-03T05:58:58.587Z,101398.97
2018-10-03T06:04:01.737Z,101400.28
2018-10-03T06:09:08.906Z,101405.27
2018-10-03T06:14:12.097Z,101408.71
2018-10-03T06:19:15.267Z,101421.66
2018-10-03T06:24:18.674Z,101428.03
2018-10-03T06:29:23.075Z,101442.20
2018-10-03T06:34:26.698Z,101446.96
2018-10-03T06:39:30.093Z,101467.67
2018-10-03T06:44:33.536Z,101479.94
2018-10-03T06:49:37.824Z,101474.09
2018-10-03T06:54:41.038Z,101489.69
2018-10-03T06:59:44.252Z,101490.67
2018-10-03T07:04:47.556Z,101503.88
2018-10-03T07:09:50.779Z,101502.51
2018-10-03T07:14:55.127Z,101516.91
2018-10-03T07:19:59.426Z,101534.87
2018-10-03T07:25:03.534Z,101540.48
2018-10-03T07:30:09.144Z,101555.20
2018-10-03T07:35:13.229Z,101535.92
2018-10-03T07:40:17.926Z,101545.64
2018-10-03T07:45:22.484Z,101555.06
2018-10-03T07:50:27.423Z,101569.97
2018-10-03T07:55:31.937Z,101578.00
2018-10-03T08:00:36.657Z,101587.30
2018-10-03T08:05:41.175Z,101594.73
2018-10-03T08:10:45.369Z,101610.38
2018-10-03T08:15:49.800Z,101608.41
2018-10-03T08:20:54.294Z,101619.30
2018-10-03T08:25:58.711Z,101629.43
2018-10-03T08:31:02.830Z,101632.98
2018-10-03T08:36:07.024Z,101639.67
2018-10-03T08:41:17.507Z,101645.56
2018-10-03T08:46:21.880Z,101665.91
2018-10-03T08:51:26.783Z,101663.08
2018-10-03T08:56:30.888Z,101677.36
2018-10-03T09:01:35.115Z,101678.50
2018-10-03T09:06:40.586Z,101693.28
2018-10-03T09:11:43.887Z,101712.57
2018-10-03T09:16:46.963Z,101717.59
2018-10-03T09:21:50.250Z,101729.48
2018-10-03T09:26:53.436Z,101737.67
2018-10-03T09:31:56.636Z,101734.56
2018-10-03T09:36:59.811Z,101750.58
2018-10-03T09:42:02.967Z,101755.23
2018-10-03T09:47:06.365Z,101749.92
2018-10-03T09:52:09.432Z,101767.28
2018-10-03T09:57:12.641Z,101768.28
2018-10-03T10:02:15.751Z,101775.70
2018-10-03T10:07:18.891Z,101763.07
2018-10-03T10:12:22.063Z,101786.89
2018-10-03T10:17:25.227Z,101799.05
2018-10-03T10:22:28.359Z,101788.23
2018-10-03T10:27:31.543Z,101795.47
2018-10-03T10:32:35.023Z,101793.28
2018-10-03T10:37:38.139Z,101810.13
2018-10-03T10:42:43.782Z,101806.59
2018-10-03T10:47:46.988Z,101819.38
2018-10-03T10:52:50.219Z,101820.42
2018-10-03T10:57:53.367Z,101829.44
2018-10-03T11:02:56.590Z,101828.12
2018-10-03T11:07:59.757Z,101833.28
2018-10-03T11:13:04.062Z,101837.26
2018-10-03T11:18:07.349Z,101839.91
2018-10-03T11:23:10.759Z,101843.72
2018-10-03T11:28:14.075Z,101832.20
2018-10-03T11:33:17.504Z,101832.40
2018-10-03T11:38:20.859Z,101840.63
2018-10-03T11:43:24.089Z,101840.12
2018-10-03T11:48:27.273Z,101842.57
2018-10-03T11:53:30.444Z,101855.75
2018-10-03T11:58:33.767Z,101857.49
2018-10-03T12:03:37.444Z,101848.60
2018-10-03T12:08:40.848Z,101866.84
2018-10-03T12:13:44.067Z,101867.22
2018-10-03T12:18:47.278Z,101868.95
2018-10-03T12:23:50.479Z,101865.47
2018-10-03T12:28:53.571Z,101865.92
2018-10-03T12:33:56.803Z,101884.66
2018-10-03T12:38:59.952Z,101877.36
2018-10-03T12:44:03.197Z,101889.11
2018-10-03T12:49:06.336Z,101879.36
2018-10-03T12:54:09.588Z,101892.09
2018-10-03T12:59:12.896Z,101887.55
2018-10-03T13:04:16.147Z,101891.45
2018-10-03T13:09:19.409Z,101894.22
2018-10-03T13:14:22.625Z,101893.39
2018-10-03T13:19:25.814Z,101900.81
2018-10-03T13:24:28.921Z,101899.67
2018-10-03T13:29:32.052Z,101896.34
2018-10-03T13:34:35.289Z,101893.44
2018-10-03T13:39:38.634Z,101901.33
2018-10-03T13:44:41.920Z,101902.50
2018-10-03T13:49:45.154Z,101902.09
2018-10-03T13:54:48.282Z,101903.30
2018-10-03T13:59:51.433Z,101912.57
2018-10-03T14:04:54.541Z,101877.01
2018-10-03T14:09:57.663Z,101907.83
2018-10-03T14:15:00.787Z,101916.72
2018-10-03T14:20:04.205Z,101921.42
2018-10-03T14:25:07.372Z,101927.86
2018-10-03T14:30:10.495Z,101945.20
2018-10-03T14:35:13.941Z,101936.92
2018-10-03T14:40:17.247Z,101947.02
2018-10-03T14:45:20.396Z,101953.64
2018-10-03T14:50:23.573Z,101953.58
2018-10-03T14:55:26.696Z,101955.87
2018-10-03T15:00:29.964Z,101952.14
2018-10-03T15:05:33.155Z,101948.12
2018-10-03T15:10:36.432Z,101944.67
2018-10-03T15:15:39.581Z,101947.69
2018-10-03T15:20:42.751Z,101952.91
2018-10-03T15:25:45.840Z,101942.89
2018-10-03T15:30:49.322Z,101953.30
2018-10-03T15:35:52.384Z,101950.73
2018-10-03T15:40:55.634Z,101954.00
2018-10-03T15:45:58.787Z,101957.55
2018-10-03T15:51:01.986Z,101962.51
2018-10-03T15:56:05.156Z,101962.69
2018-10-03T16:01:08.338Z,101977.66
2018-10-03T16:06:11.390Z,101977.75
2018-10-03T16:11:14.570Z,101979.88
2018-10-03T16:16:17.677Z,101980.36
2018-10-03T16:21:20.889Z,101987.31
2018-10-03T16:26:23.988Z,101990.53
2018-10-03T16:31:27.136Z,101997.62
2018-10-03T16:36:30.300Z,101993.97
2018-10-03T16:41:33.474Z,102003.05
2018-10-03T16:46:36.745Z,102007.13
2018-10-03T16:51:39.955Z,102011.37
2018-10-03T16:56:43.103Z,102014.64
2018-10-03T17:01:48.232Z,102017.61
2018-10-03T17:06:52.639Z,102024.25
2018-10-03T17:11:56.852Z,102026.67
2018-10-03T17:16:59.996Z,102030.84
2018-10-03T17:22:03.652Z,102036.40
2018-10-03T17:27:06.832Z,102058.66
2018-10-03T17:32:09.902Z,102038.27
2018-10-03T17:37:13.012Z,102050.45
2018-10-03T17:42:16.336Z,102052.87
2018-10-03T17:47:19.524Z,102061.89
2018-10-03T17:52:22.675Z,102076.34
2018-10-03T17:57:25.908Z,102087.77
2018-10-03T18:02:29.225Z,102088.94
2018-10-03T18:07:32.376Z,102085.03
2018-10-03T18:12:35.572Z,102091.79
2018-10-03T18:17:38.823Z,102097.77
2018-10-03T18:22:41.992Z,102104.07
2018-10-03T18:27:45.190Z,102104.50
2018-10-03T18:32:48.423Z,102107.63
2018-10-03T18:37:51.628Z,102118.02
2018-10-03T18:42:54.811Z,102114.03
2018-10-03T18:47:58.055Z,102106.25
2018-10-03T18:53:01.280Z,102103.38
2018-10-03T18:58:04.548Z,102105.69
2018-10-03T19:03:07.708Z,102106.12
2018-10-03T19:08:10.868Z,102116.09
2018-10-03T19:13:13.988Z,102115.45
2018-10-03T19:18:17.098Z,102113.55
2018-10-03T19:23:20.143Z,102111.22
2018-10-03T19:28:23.239Z,102108.92
2018-10-03T19:33:26.336Z,102120.70
2018-10-03T19:38:29.454Z,102124.31
2018-10-03T19:43:32.667Z,102130.55
2018-10-03T19:48:35.799Z,102132.53
2018-10-03T19:53:38.803Z,102129.64
2018-10-03T19:58:41.891Z,102126.70
2018-10-03T20:03:44.969Z,102127.73
2018-10-03T20:08:48.043Z,102122.20
2018-10-03T20:13:51.188Z,102132.42
2018-10-03T20:18:54.227Z,102137.35
2018-10-03T20:23:57.299Z,102135.16
2018-10-03T20:29:00.383Z,102135.66
2018-10-03T20:34:03.507Z,102144.17
2018-10-03T20:39:08.210Z,102135.20
2018-10-03T20:44:11.281Z,102138.89
2018-10-03T20:49:14.372Z,102129.80
2018-10-03T20:54:17.511Z,102139.03
2018-10-03T20:59:20.558Z,102147.77
2018-10-03T21:04:23.667Z,102146.92
2018-10-03T21:09:26.762Z,102152.68
2018-10-03T21:14:29.851Z,102148.48
2018-10-03T21:19:32.939Z,102145.55
2018-10-03T21:24:36.019Z,102146.45
2018-10-03T21:29:39.347Z,102159.53
2018-10-03T21:34:42.406Z,102164.23
2018-10-03T21:39:45.470Z,102165.14
2018-10-03T21:44:48.583Z,102169.58
2018-10-03T21:49:51.709Z,102167.47
2018-10-03T22:02:53.586Z,102170.41
2018-10-03T22:07:56.649Z,102170.33
2018-10-03T22:12:59.735Z,102171.55
2018-10-03T22:18:02.796Z,102169.78
2018-10-03T22:23:06.381Z,102170.24
2018-10-03T22:28:09.379Z,102169.39
2018-10-03T22:33:12.415Z,102173.75
2018-10-03T22:38:15.513Z,102169.73
2018-10-03T22:43:18.688Z,102169.53
2018-10-03T22:48:21.767Z,102171.13
2018-10-03T22:53:24.818Z,102169.22
2018-10-03T22:58:27.881Z,102170.33
2018-10-03T23:03:30.963Z,102167.53
2018-10-03T23:14:14.666Z,102156.83
2018-10-03T23:19:17.728Z,102154.67
2018-10-03T23:24:20.783Z,102168.80
2018-10-03T23:29:23.850Z,102160.95
2018-10-03T23:34:26.928Z,102160.16
2018-10-03T23:39:30.007Z,102153.58
2018-10-03T23:44:33.071Z,102165.22
2018-10-03T23:49:36.140Z,102159.86
2018-10-03T23:54:39.298Z,102157.59
2018-10-03T23:59:42.343Z,102155.78
